createdAt,value
2019-03-01T00:02:26.084Z,59.27
2019-03-01T00:05:45.190Z,65.80
2019-03-01T00:08:15.754Z,58.90
2019-03-01T00:11:25.170Z,60.97
2019-03-01T00:14:04.862Z,59.67
2019-03-01T00:16:59.262Z,61.00
2019-03-01T00:20:15.426Z,59.13
2019-03-01T00:23:15.701Z,59.70
2019-03-01T00:26:02.939Z,58.67
2019-03-01T00:28:38.549Z,57.33
2019-03-01T00:31:39.746Z,52.50
2019-03-01T00:34:37.435Z,63.90
2019-03-01T00:37:17.131Z,59.50
2019-03-01T00:40:15.350Z,61.57
2019-03-01T00:43:21.688Z,58.63
2019-03-01T00:45:51.400Z,55.27
2019-03-01T00:48:22.317Z,58.93
2019-03-01T00:50:51.965Z,52.67
2019-03-01T00:53:21.752Z,46.53
2019-03-01T00:55:51.411Z,51.33
2019-03-01T00:58:20.749Z,49.37
2019-03-01T01:00:49.945Z,49.70
2019-03-01T01:03:19.469Z,48.30
2019-03-01T01:05:48.706Z,54.67
2019-03-01T01:08:18.287Z,53.97
2019-03-01T01:10:47.973Z,50.20
2019-03-01T01:13:17.199Z,49.03
2019-03-01T01:15:46.826Z,42.27
2019-03-01T01:18:16.538Z,51.10
2019-03-01T01:20:45.797Z,41.60
2019-03-01T01:23:17.829Z,47.60
2019-03-01T01:25:47.429Z,46.70
2019-03-01T01:28:16.644Z,47.77
2019-03-01T01:30:46.274Z,43.90
2019-03-01T01:33:15.647Z,52.83
2019-03-01T01:35:45.246Z,53.77
2019-03-01T01:38:14.446Z,44.63
2019-03-01T01:40:43.965Z,45.03
2019-03-01T01:43:13.181Z,50.20
2019-03-01T01:45:42.748Z,64.10
2019-03-01T01:48:12.034Z,57.83
2019-03-01T01:50:41.640Z,46.30
2019-03-01T01:53:10.930Z,52.87
2019-03-01T01:55:40.046Z,54.77
2019-03-01T01:58:09.158Z,49.93
2019-03-01T02:00:38.775Z,56.43
2019-03-01T02:03:07.964Z,51.80
2019-03-01T02:05:39.042Z,40.70
2019-03-01T02:08:08.296Z,47.67
2019-03-01T02:10:38.113Z,41.00
2019-03-01T02:13:07.326Z,37.70
2019-03-01T02:15:37.125Z,34.00
2019-03-01T02:18:06.937Z,40.67
2019-03-01T02:20:36.176Z,33.07
2019-03-01T02:23:05.715Z,39.07
2019-03-01T02:25:34.926Z,41.97
2019-03-01T02:28:04.101Z,36.57
2019-03-01T02:30:33.736Z,38.43
2019-03-01T02:33:03.368Z,34.90
2019-03-01T02:35:32.567Z,34.70
2019-03-01T02:38:01.658Z,33.37
2019-03-01T02:40:34.710Z,44.30
2019-03-01T02:43:04.428Z,38.57
2019-03-01T02:45:34.261Z,38.10
2019-03-01T02:48:04.032Z,38.50
2019-03-01T02:50:33.673Z,56.87
2019-03-01T02:53:02.909Z,39.90
2019-03-01T02:55:32.265Z,33.50
2019-03-01T02:58:01.429Z,30.80
2019-03-01T03:00:30.649Z,40.97
2019-03-01T03:03:00.572Z,37.00
2019-03-01T03:05:30.351Z,33.27
2019-03-01T03:08:05.120Z,39.70
2019-03-01T03:10:34.716Z,43.00
2019-03-01T03:13:09.279Z,45.50
2019-03-01T03:15:44.996Z,38.40
2019-03-01T03:18:14.213Z,35.30
2019-03-01T03:20:43.864Z,38.47
2019-03-01T03:23:13.296Z,36.73
2019-03-01T03:25:42.493Z,31.13
2019-03-01T03:28:11.696Z,33.30
2019-03-01T03:30:41.468Z,36.93
2019-03-01T03:33:11.127Z,30.67
2019-03-01T03:35:40.394Z,30.67
2019-03-01T03:38:09.994Z,26.90
2019-03-01T03:40:39.201Z,38.27
2019-03-01T03:43:10.858Z,36.43
2019-03-01T03:45:40.555Z,27.90
2019-03-01T03:48:10.372Z,39.37
2019-03-01T03:50:41.077Z,46.60
2019-03-01T03:53:10.382Z,30.87
2019-03-01T03:55:39.947Z,32.07
2019-03-01T03:58:09.845Z,33.30
2019-03-01T04:00:39.098Z,29.03
2019-03-01T04:03:08.346Z,36.87
2019-03-01T04:05:37.931Z,38.40
2019-03-01T04:08:07.734Z,31.50
2019-03-01T04:10:37.431Z,34.67
2019-03-01T04:13:07.150Z,37.23
2019-03-01T04:15:36.813Z,30.93
2019-03-01T04:18:06.568Z,45.27
2019-03-01T04:20:35.968Z,49.40
2019-03-01T04:23:06.768Z,29.30
2019-03-01T04:25:35.992Z,32.43
2019-03-01T04:28:05.127Z,46.43
2019-03-01T04:30:34.401Z,44.43
2019-03-01T04:33:04.110Z,48.47
2019-03-01T04:35:33.291Z,30.77
2019-03-01T04:38:02.851Z,32.37
2019-03-01T04:40:32.211Z,31.17
2019-03-01T04:43:01.810Z,34.70
2019-03-01T04:45:31.615Z,35.57
2019-03-01T04:48:00.830Z,35.17
2019-03-01T04:50:30.366Z,30.87
2019-03-01T04:52:59.586Z,36.03
2019-03-01T04:55:28.807Z,40.20
2019-03-01T04:57:57.934Z,31.73
2019-03-01T05:00:27.141Z,29.97
2019-03-01T05:02:57.837Z,34.73
2019-03-01T05:05:27.534Z,32.70
2019-03-01T05:07:57.145Z,39.77
2019-03-01T05:10:26.354Z,32.97
2019-03-01T05:12:55.949Z,38.70
2019-03-01T05:15:25.638Z,33.90
2019-03-01T05:17:55.304Z,37.47
2019-03-01T05:20:24.999Z,34.93
2019-03-01T05:22:54.695Z,39.27
2019-03-01T05:25:24.006Z,34.67
2019-03-01T05:27:53.699Z,33.03
2019-03-01T05:30:22.963Z,33.33
2019-03-01T05:32:52.066Z,36.37
2019-03-01T05:35:21.650Z,36.53
2019-03-01T05:37:51.365Z,36.00
2019-03-01T05:40:20.990Z,38.57
2019-03-01T05:42:53.287Z,39.13
2019-03-01T05:45:28.059Z,38.93
2019-03-01T05:47:57.802Z,42.50
2019-03-01T05:50:27.533Z,35.83
2019-03-01T05:52:57.323Z,35.77
2019-03-01T05:55:27.024Z,36.60
2019-03-01T05:58:16.740Z,38.17
2019-03-01T06:00:45.839Z,39.13
2019-03-01T06:03:23.080Z,38.33
2019-03-01T06:05:52.409Z,45.50
2019-03-01T06:09:12.086Z,42.93
2019-03-01T06:12:09.451Z,37.77
2019-03-01T06:15:07.214Z,33.53
2019-03-01T06:18:14.718Z,43.03
2019-03-01T06:21:26.392Z,45.30
2019-03-01T06:24:23.874Z,42.07
2019-03-01T06:27:16.398Z,40.23
2019-03-01T06:29:53.483Z,43.00
2019-03-01T06:33:03.434Z,37.77
2019-03-01T06:36:03.821Z,39.43
2019-03-01T06:39:24.442Z,38.67
2019-03-01T06:42:47.491Z,45.00
2019-03-01T06:45:35.142Z,47.77
2019-03-01T06:48:09.118Z,50.57
2019-03-01T06:50:54.932Z,54.00
2019-03-01T06:53:30.708Z,52.30
2019-03-01T06:56:01.120Z,40.17
2019-03-01T06:58:36.659Z,44.90
2019-03-01T07:01:20.559Z,44.40
2019-03-01T07:04:13.002Z,49.37
2019-03-01T07:06:42.400Z,50.43
2019-03-01T07:09:12.310Z,54.27
2019-03-01T07:11:42.303Z,45.87
2019-03-01T07:14:11.585Z,53.23
2019-03-01T07:16:41.492Z,53.50
2019-03-01T07:19:11.171Z,50.43
2019-03-01T07:21:40.916Z,59.53
2019-03-01T07:24:11.821Z,58.60
2019-03-01T07:26:41.819Z,60.50
2019-03-01T07:29:11.673Z,58.80
2019-03-01T07:31:41.448Z,57.17
2019-03-01T07:34:10.763Z,62.73
2019-03-01T07:36:40.613Z,70.57
2019-03-01T07:39:10.758Z,71.37
2019-03-01T07:41:40.085Z,64.73
2019-03-01T07:44:09.707Z,91.93
2019-03-01T07:46:39.532Z,111.63
2019-03-01T07:49:10.543Z,106.33
2019-03-01T07:51:39.991Z,110.10
2019-03-01T07:54:09.324Z,105.93
2019-03-01T07:56:39.831Z,116.37
2019-03-01T07:59:10.179Z,117.20
2019-03-01T08:01:40.052Z,98.93
2019-03-01T08:04:09.451Z,106.67
2019-03-01T08:06:38.662Z,105.07
2019-03-01T08:09:12.691Z,101.97
2019-03-01T08:11:42.397Z,87.67
2019-03-01T08:14:12.156Z,93.43
2019-03-01T08:16:42.011Z,95.37
2019-03-01T08:19:11.451Z,100.00
2019-03-01T08:21:42.646Z,81.30
2019-03-01T08:24:12.091Z,78.13
2019-03-01T08:26:42.000Z,81.60
2019-03-01T08:29:11.893Z,62.50
2019-03-01T08:31:41.249Z,57.70
2019-03-01T08:34:10.434Z,66.20
2019-03-01T08:36:42.537Z,81.63
2019-03-01T08:39:11.459Z,62.43
2019-03-01T08:41:41.399Z,68.33
2019-03-01T08:44:10.974Z,56.97
2019-03-01T08:46:41.982Z,48.00
2019-03-01T08:49:12.276Z,50.13
2019-03-01T08:51:42.156Z,48.03
2019-03-01T08:54:13.093Z,45.73
2019-03-01T08:56:43.037Z,43.13
2019-03-01T08:59:14.098Z,35.20
2019-03-01T09:01:45.820Z,37.27
2019-03-01T09:04:18.111Z,33.67
2019-03-01T09:06:46.706Z,30.97
2019-03-01T09:09:17.720Z,28.27
2019-03-01T09:11:47.389Z,27.97
2019-03-01T09:14:18.080Z,27.93
2019-03-01T09:16:47.883Z,27.27
2019-03-01T09:19:17.592Z,25.17
2019-03-01T09:21:50.147Z,26.67
2019-03-01T09:24:18.845Z,24.30
2019-03-01T09:26:48.146Z,20.00
2019-03-01T09:29:19.321Z,17.30
2019-03-01T09:31:57.804Z,19.73
2019-03-01T09:34:28.756Z,18.53
2019-03-01T09:36:58.576Z,18.00
2019-03-01T09:39:28.431Z,18.77
2019-03-01T09:42:03.289Z,19.60
2019-03-01T09:44:29.083Z,18.40
2019-03-01T09:47:01.469Z,19.67
2019-03-01T09:49:29.976Z,17.00
2019-03-01T09:51:59.223Z,17.80
2019-03-01T09:54:28.866Z,20.97
2019-03-01T09:56:58.448Z,16.90
2019-03-01T09:59:28.747Z,18.73
2019-03-01T10:01:57.999Z,17.83
2019-03-01T10:04:27.623Z,18.67
2019-03-01T10:06:58.345Z,13.90
2019-03-01T10:09:28.213Z,20.53
2019-03-01T10:11:57.963Z,15.07
2019-03-01T10:14:27.342Z,16.13
2019-03-01T10:16:57.115Z,22.57
2019-03-01T10:19:26.486Z,21.43
2019-03-01T10:21:56.167Z,18.30
2019-03-01T10:24:29.373Z,13.83
2019-03-01T10:27:02.992Z,16.07
2019-03-01T10:29:32.257Z,18.20
2019-03-01T10:32:02.072Z,18.33
2019-03-01T10:34:32.047Z,15.07
2019-03-01T10:37:01.760Z,14.00
2019-03-01T10:39:31.709Z,17.10
2019-03-01T10:42:00.980Z,15.60
2019-03-01T10:44:30.719Z,15.40
2019-03-01T10:47:00.432Z,15.57
2019-03-01T10:49:30.195Z,14.50
2019-03-01T10:51:59.607Z,12.87
2019-03-01T10:54:29.372Z,15.37
2019-03-01T10:56:59.326Z,15.73
2019-03-01T10:59:29.149Z,13.53
2019-03-01T11:01:58.423Z,14.47
2019-03-01T11:04:28.605Z,16.73
2019-03-01T11:06:58.314Z,11.87
2019-03-01T11:09:28.160Z,13.83
2019-03-01T11:11:57.914Z,14.33
2019-03-01T11:14:27.637Z,11.47
2019-03-01T11:16:57.459Z,12.33
2019-03-01T11:19:26.763Z,12.67
2019-03-01T11:21:56.078Z,16.90
2019-03-01T11:24:25.800Z,11.03
2019-03-01T11:26:55.629Z,14.20
2019-03-01T11:29:25.364Z,14.83
2019-03-01T11:31:55.185Z,15.73
2019-03-01T11:34:24.548Z,15.57
2019-03-01T11:36:54.602Z,15.97
2019-03-01T11:39:24.480Z,20.10
2019-03-01T11:41:54.240Z,18.67
2019-03-01T11:44:24.136Z,20.03
2019-03-01T11:46:54.479Z,19.13
2019-03-01T11:49:23.802Z,18.10
2019-03-01T11:51:53.632Z,23.03
2019-03-01T11:54:23.523Z,31.73
2019-03-01T11:56:53.805Z,20.60
2019-03-01T11:59:23.644Z,17.63
2019-03-01T12:01:54.130Z,18.80
2019-03-01T12:04:23.446Z,19.77
2019-03-01T12:06:52.833Z,22.23
2019-03-01T12:09:22.717Z,25.30
2019-03-01T12:11:52.458Z,22.17
2019-03-01T12:14:22.481Z,24.00
2019-03-01T12:16:51.812Z,19.63
2019-03-01T12:19:21.242Z,19.47
2019-03-01T12:21:50.534Z,24.33
2019-03-01T12:24:19.812Z,28.53
2019-03-01T12:26:49.255Z,24.40
2019-03-01T12:29:19.086Z,20.00
2019-03-01T12:31:48.502Z,24.47
2019-03-01T12:34:18.130Z,18.23
2019-03-01T12:36:48.404Z,18.17
2019-03-01T12:39:18.143Z,18.90
2019-03-01T12:41:47.424Z,20.80
2019-03-01T12:44:17.081Z,24.00
2019-03-01T12:46:46.883Z,25.07
2019-03-01T12:49:16.614Z,24.97
2019-03-01T12:51:46.464Z,20.17
2019-03-01T12:54:15.736Z,25.97
2019-03-01T12:56:44.854Z,25.53
2019-03-01T12:59:13.961Z,18.97
2019-03-01T13:01:43.096Z,17.30
2019-03-01T13:04:12.468Z,18.50
2019-03-01T13:06:42.097Z,15.83
2019-03-01T13:09:12.822Z,20.77
2019-03-01T13:11:41.995Z,13.27
2019-03-01T13:14:11.533Z,15.73
2019-03-01T13:16:41.257Z,14.63
2019-03-01T13:19:10.862Z,13.93
2019-03-01T13:21:40.083Z,14.37
2019-03-01T13:24:12.695Z,14.47
2019-03-01T13:26:41.576Z,15.10
2019-03-01T13:29:11.206Z,12.43
2019-03-01T13:31:40.395Z,15.10
2019-03-01T13:34:10.599Z,13.43
2019-03-01T13:36:40.572Z,15.93
2019-03-01T13:39:10.433Z,14.60
2019-03-01T13:41:40.870Z,15.77
2019-03-01T13:44:10.042Z,11.57
2019-03-01T13:46:39.615Z,19.00
2019-03-01T13:49:10.294Z,12.77
2019-03-01T13:51:39.511Z,15.80
2019-03-01T13:54:09.823Z,11.57
2019-03-01T13:56:39.546Z,15.53
2019-03-01T13:59:09.229Z,12.20
2019-03-01T14:01:38.439Z,14.90
2019-03-01T14:04:09.535Z,12.60
2019-03-01T14:06:40.376Z,15.73
2019-03-01T14:09:13.363Z,14.77
2019-03-01T14:11:43.162Z,14.13
2019-03-01T14:14:12.908Z,17.87
2019-03-01T14:16:42.684Z,13.97
2019-03-01T14:19:12.347Z,15.03
2019-03-01T14:21:42.019Z,14.27
2019-03-01T14:24:11.695Z,13.97
2019-03-01T14:26:41.487Z,15.43
2019-03-01T14:29:12.877Z,14.07
2019-03-01T14:31:43.018Z,14.27
2019-03-01T14:34:13.383Z,17.07
2019-03-01T14:36:43.209Z,14.40
2019-03-01T14:39:17.857Z,17.37
2019-03-01T14:41:47.507Z,29.50
2019-03-01T14:44:17.231Z,20.50
2019-03-01T14:46:46.928Z,24.40
2019-03-01T14:49:18.488Z,21.13
2019-03-01T14:51:48.194Z,22.30
2019-03-01T14:54:18.460Z,23.57
2019-03-01T14:57:01.302Z,24.03
2019-03-01T14:59:37.991Z,21.23
2019-03-01T15:02:22.870Z,21.50
2019-03-01T15:04:51.994Z,19.63
2019-03-01T15:07:21.600Z,21.83
2019-03-01T15:09:53.228Z,21.40
2019-03-01T15:12:22.516Z,23.20
2019-03-01T15:14:56.098Z,27.27
2019-03-01T15:17:25.923Z,21.70
2019-03-01T15:19:55.536Z,22.17
2019-03-01T15:22:24.753Z,26.63
2019-03-01T15:24:53.903Z,23.57
2019-03-01T15:27:23.462Z,23.20
2019-03-01T15:29:53.098Z,25.17
2019-03-01T15:32:22.337Z,24.23
2019-03-01T15:34:51.897Z,23.60
2019-03-01T15:37:21.632Z,25.13
2019-03-01T15:39:54.020Z,26.63
2019-03-01T15:42:22.743Z,19.37
2019-03-01T15:44:52.394Z,26.87
2019-03-01T15:47:23.850Z,22.80
2019-03-01T15:49:53.150Z,23.23
2019-03-01T15:52:22.714Z,25.73
2019-03-01T15:54:51.948Z,24.40
2019-03-01T15:57:21.479Z,21.87
2019-03-01T15:59:51.123Z,25.33
2019-03-01T16:02:20.326Z,26.47
2019-03-01T16:04:49.477Z,27.60
2019-03-01T16:07:19.067Z,26.73
2019-03-01T16:09:48.238Z,25.17
2019-03-01T16:12:17.499Z,25.83
2019-03-01T16:14:47.043Z,26.97
2019-03-01T16:17:16.874Z,26.27
2019-03-01T16:19:46.950Z,25.67
2019-03-01T16:22:18.749Z,26.33
2019-03-01T16:24:49.694Z,32.03
2019-03-01T16:27:19.431Z,35.60
2019-03-01T16:29:49.108Z,31.50
2019-03-01T16:32:18.330Z,27.87
2019-03-01T16:34:47.903Z,28.10
2019-03-01T16:37:17.662Z,28.33
2019-03-01T16:39:47.350Z,31.53
2019-03-01T16:42:18.102Z,34.20
2019-03-01T16:44:48.183Z,31.77
2019-03-01T16:47:17.767Z,31.20
2019-03-01T16:49:47.564Z,32.53
2019-03-01T16:52:17.194Z,32.43
2019-03-01T16:54:47.539Z,34.97
2019-03-01T16:57:18.602Z,37.30
2019-03-01T16:59:48.005Z,37.37
2019-03-01T17:02:17.160Z,41.57
2019-03-01T17:04:46.316Z,33.63
2019-03-01T17:07:15.684Z,33.67
2019-03-01T17:09:47.344Z,34.50
2019-03-01T17:12:16.752Z,35.23
2019-03-01T17:14:46.762Z,34.60
2019-03-01T17:17:15.891Z,40.87
2019-03-01T17:19:45.344Z,38.57
2019-03-01T17:22:15.015Z,36.93
2019-03-01T17:24:44.346Z,35.37
2019-03-01T17:27:13.979Z,39.40
2019-03-01T17:29:45.740Z,45.70
2019-03-01T17:32:14.651Z,47.07
2019-03-01T17:34:44.202Z,43.00
2019-03-01T17:37:13.855Z,45.53
2019-03-01T17:39:43.481Z,45.87
2019-03-01T17:42:12.736Z,45.40
2019-03-01T17:44:44.539Z,46.13
2019-03-01T17:47:13.684Z,49.77
2019-03-01T17:49:43.326Z,52.37
2019-03-01T17:52:13.173Z,52.30
2019-03-01T17:54:42.892Z,48.60
2019-03-01T17:57:12.150Z,46.50
2019-03-01T17:59:41.250Z,56.03
2019-03-01T18:02:12.070Z,49.37
2019-03-01T18:04:41.682Z,49.87
2019-03-01T18:07:11.426Z,47.57
2019-03-01T18:09:40.664Z,50.17
2019-03-01T18:12:10.035Z,49.90
2019-03-01T18:14:39.610Z,48.60
2019-03-01T18:17:09.240Z,43.87
2019-03-01T18:19:38.656Z,40.83
2019-03-01T18:22:08.202Z,41.93
2019-03-01T18:24:37.859Z,38.67
2019-03-01T18:27:08.153Z,37.47
2019-03-01T18:29:39.040Z,37.30
2019-03-01T18:32:09.935Z,34.37
2019-03-01T18:34:39.235Z,33.97
2019-03-01T18:37:19.051Z,31.83
2019-03-01T18:39:41.208Z,27.77
2019-03-01T18:42:10.242Z,28.27
2019-03-01T18:44:39.379Z,28.07
2019-03-01T18:47:09.991Z,28.67
2019-03-01T18:49:39.264Z,25.33
2019-03-01T18:52:08.948Z,21.87
2019-03-01T18:54:40.073Z,25.50
2019-03-01T18:57:09.579Z,22.93
2019-03-01T18:59:38.889Z,22.23
2019-03-01T19:02:08.127Z,22.93
2019-03-01T19:04:37.697Z,22.90
2019-03-01T19:07:07.513Z,21.80
2019-03-01T19:09:36.770Z,22.77
2019-03-01T19:12:05.923Z,24.20
2019-03-01T19:14:39.206Z,27.00
2019-03-01T19:17:07.552Z,21.53
2019-03-01T19:19:37.044Z,22.57
2019-03-01T19:22:06.381Z,22.40
2019-03-01T19:24:42.849Z,20.07
2019-03-01T19:27:09.322Z,19.30
2019-03-01T19:29:38.094Z,23.53
2019-03-01T19:32:08.188Z,18.97
2019-03-01T19:34:38.888Z,18.10
2019-03-01T19:37:10.218Z,21.87
2019-03-01T19:39:39.078Z,18.77
2019-03-01T19:42:08.203Z,20.30
2019-03-01T19:44:37.310Z,18.77
2019-03-01T19:47:06.431Z,20.73
2019-03-01T19:49:35.719Z,19.73
2019-03-01T19:52:05.373Z,22.73
2019-03-01T19:54:36.519Z,25.63
2019-03-01T19:57:06.006Z,25.83
2019-03-01T19:59:35.929Z,23.53
2019-03-01T20:02:05.964Z,26.20
2019-03-01T20:04:35.313Z,26.43
2019-03-01T20:07:04.624Z,24.13
2019-03-01T20:09:36.628Z,26.23
2019-03-01T20:12:05.216Z,25.63
2019-03-01T20:14:34.606Z,21.90
2019-03-01T20:17:03.849Z,25.13
2019-03-01T20:19:32.958Z,22.63
2019-03-01T20:22:02.354Z,19.50
2019-03-01T20:24:33.135Z,20.60
2019-03-01T20:27:03.070Z,17.63
2019-03-01T20:29:35.472Z,20.33
2019-03-01T20:32:05.139Z,18.73
2019-03-01T20:34:34.863Z,17.20
2019-03-01T20:37:05.644Z,17.87
2019-03-01T20:39:35.070Z,23.43
2019-03-01T20:42:04.782Z,17.63
2019-03-01T20:44:34.791Z,21.67
2019-03-01T20:47:04.505Z,18.70
2019-03-01T20:49:35.700Z,20.37
2019-03-01T20:52:05.110Z,19.57
2019-03-01T20:54:34.683Z,21.70
2019-03-01T20:57:03.944Z,18.80
2019-03-01T20:59:33.095Z,20.30
2019-03-01T21:02:02.221Z,18.77
2019-03-01T21:04:31.752Z,16.47
2019-03-01T21:07:03.079Z,19.63
2019-03-01T21:09:32.408Z,16.33
2019-03-01T21:12:02.374Z,19.80
2019-03-01T21:14:31.577Z,20.60
2019-03-01T21:17:00.727Z,20.20
2019-03-01T21:19:29.853Z,20.30
2019-03-01T21:22:01.535Z,22.33
2019-03-01T21:24:32.080Z,22.70
2019-03-01T21:27:01.857Z,21.80
2019-03-01T21:29:31.491Z,20.27
2019-03-01T21:32:01.649Z,21.87
2019-03-01T21:34:34.858Z,24.07
2019-03-01T21:37:03.908Z,23.17
2019-03-01T21:39:33.789Z,24.47
2019-03-01T21:42:04.875Z,26.20
2019-03-01T21:44:34.138Z,26.73
2019-03-01T21:47:06.906Z,25.67
2019-03-01T21:49:36.286Z,26.13
2019-03-01T21:52:05.983Z,23.70
2019-03-01T21:54:35.763Z,31.47
2019-03-01T21:57:05.962Z,28.57
2019-03-01T21:59:35.737Z,28.00
2019-03-01T22:02:05.858Z,25.50
2019-03-01T22:04:37.385Z,25.33
2019-03-01T22:07:06.603Z,26.70
2019-03-01T22:09:36.423Z,26.27
2019-03-01T22:12:05.667Z,26.93
2019-03-01T22:14:35.332Z,25.73
2019-03-01T22:17:04.792Z,24.00
2019-03-01T22:19:34.506Z,25.80
2019-03-01T22:22:03.679Z,22.30
2019-03-01T22:24:34.208Z,22.80
2019-03-01T22:27:03.830Z,23.93
2019-03-01T22:29:33.034Z,24.47
2019-03-01T22:32:02.242Z,21.80
2019-03-01T22:34:32.167Z,21.97
2019-03-01T22:37:01.510Z,23.50
2019-03-01T22:39:30.715Z,23.17
2019-03-01T22:42:00.435Z,20.90
2019-03-01T22:44:33.372Z,26.00
2019-03-01T22:47:01.883Z,23.93
2019-03-01T22:49:31.789Z,25.17
2019-03-01T22:52:02.233Z,21.37
2019-03-01T22:54:32.443Z,24.53
2019-03-01T22:57:02.624Z,24.50
2019-03-01T22:59:31.761Z,22.77
2019-03-01T23:02:08.203Z,22.23
2019-03-01T23:04:35.840Z,22.43
2019-03-01T23:07:05.395Z,21.60
2019-03-01T23:09:35.093Z,20.73
2019-03-01T23:12:08.098Z,21.93
2019-03-01T23:14:37.931Z,22.97
2019-03-01T23:17:07.031Z,26.60
2019-03-01T23:19:36.596Z,22.47
2019-03-01T23:22:07.640Z,24.03
2019-03-01T23:24:37.614Z,21.43
2019-03-01T23:27:07.269Z,22.33
2019-03-01T23:29:36.638Z,22.43
2019-03-01T23:32:06.185Z,25.50
2019-03-01T23:34:38.995Z,24.70
2019-03-01T23:37:07.156Z,26.53
2019-03-01T23:39:36.469Z,24.33
2019-03-01T23:42:05.672Z,26.47
2019-03-01T23:44:35.267Z,29.53
2019-03-01T23:47:05.890Z,36.30
2019-03-01T23:49:35.578Z,37.43
2019-03-01T23:52:05.252Z,40.40
2019-03-01T23:54:35.008Z,34.00
2019-03-01T23:57:05.678Z,37.30
2019-03-01T23:59:35.570Z,36.60
